sensor_id;sensor_type;location;lat;lon;timestamp;P1;durP1;ratioP1;P2;durP2;ratioP2
50291;SDS011;36190;54.980;73.388;2023-09-18T00:00:27;38.60;;;22.02;;
50291;SDS011;36190;54.980;73.388;2023-09-18T00:02:55;44.78;;;25.30;;
50291;SDS011;36190;54.980;73.388;2023-09-18T00:05:24;40.72;;;24.88;;
50291;SDS011;36190;54.980;73.388;2023-09-18T00:07:52;40.45;;;23.10;;
50291;SDS011;36190;54.980;73.388;2023-09-18T00:10:19;42.40;;;22.88;;
50291;SDS011;36190;54.980;73.388;2023-09-18T00:12:47;45.83;;;25.10;;
50291;SDS011;36190;54.980;73.388;2023-09-18T00:15:14;44.75;;;22.77;;
50291;SDS011;36190;54.980;73.388;2023-09-18T00:17:42;48.80;;;25.70;;
50291;SDS011;36190;54.980;73.388;2023-09-18T00:20:09;42.45;;;24.42;;
50291;SDS011;36190;54.980;73.388;2023-09-18T00:22:40;43.05;;;25.40;;
50291;SDS011;36190;54.980;73.388;2023-09-18T00:25:08;46.88;;;25.92;;
50291;SDS011;36190;54.980;73.388;2023-09-18T00:27:35;45.78;;;25.77;;
50291;SDS011;36190;54.980;73.388;2023-09-18T00:30:03;39.85;;;23.05;;
50291;SDS011;36190;54.980;73.388;2023-09-18T00:32:32;37.35;;;21.45;;
50291;SDS011;36190;54.980;73.388;2023-09-18T00:34:59;45.88;;;23.25;;
50291;SDS011;36190;54.980;73.388;2023-09-18T00:37:28;44.53;;;23.27;;
50291;SDS011;36190;54.980;73.388;2023-09-18T00:39:57;51.08;;;25.17;;
50291;SDS011;36190;54.980;73.388;2023-09-18T00:42:25;41.75;;;22.08;;
50291;SDS011;36190;54.980;73.388;2023-09-18T00:44:52;38.55;;;21.90;;
50291;SDS011;36190;54.980;73.388;2023-09-18T00:47:20;38.53;;;21.65;;
50291;SDS011;36190;54.980;73.388;2023-09-18T00:49:48;56.83;;;24.45;;
50291;SDS011;36190;54.980;73.388;2023-09-18T00:52:17;50.30;;;26.33;;
50291;SDS011;36190;54.980;73.388;2023-09-18T00:54:46;49.05;;;25.13;;
50291;SDS011;36190;54.980;73.388;2023-09-18T00:57:16;45.53;;;23.85;;
50291;SDS011;36190;54.980;73.388;2023-09-18T00:59:44;56.38;;;24.80;;
50291;SDS011;36190;54.980;73.388;2023-09-18T01:02:12;44.75;;;24.25;;
50291;SDS011;36190;54.980;73.388;2023-09-18T01:04:40;41.63;;;23.30;;
50291;SDS011;36190;54.980;73.388;2023-09-18T01:07:09;47.03;;;23.20;;
50291;SDS011;36190;54.980;73.388;2023-09-18T01:09:37;49.70;;;22.98;;
50291;SDS011;36190;54.980;73.388;2023-09-18T01:12:06;45.35;;;21.80;;
50291;SDS011;36190;54.980;73.388;2023-09-18T01:14:40;36.47;;;20.75;;
50291;SDS011;36190;54.980;73.388;2023-09-18T01:17:14;41.40;;;20.00;;
50291;SDS011;36190;54.980;73.388;2023-09-18T01:19:44;35.60;;;19.20;;
50291;SDS011;36190;54.980;73.388;2023-09-18T01:22:12;33.92;;;18.23;;
50291;SDS011;36190;54.980;73.388;2023-09-18T01:24:43;42.08;;;19.80;;
50291;SDS011;36190;54.980;73.388;2023-09-18T01:27:13;37.88;;;18.13;;
50291;SDS011;36190;54.980;73.388;2023-09-18T01:29:43;35.80;;;16.45;;
50291;SDS011;36190;54.980;73.388;2023-09-18T01:32:11;38.70;;;20.13;;
50291;SDS011;36190;54.980;73.388;2023-09-18T01:34:39;34.67;;;17.90;;
50291;SDS011;36190;54.980;73.388;2023-09-18T01:37:09;37.38;;;18.35;;
50291;SDS011;36190;54.980;73.388;2023-09-18T01:39:38;44.25;;;19.30;;
50291;SDS011;36190;54.980;73.388;2023-09-18T01:42:08;42.30;;;18.77;;
50291;SDS011;36190;54.980;73.388;2023-09-18T01:44:36;39.60;;;18.10;;
50291;SDS011;36190;54.980;73.388;2023-09-18T01:47:04;47.80;;;19.88;;
50291;SDS011;36190;54.980;73.388;2023-09-18T01:49:34;35.88;;;19.55;;
50291;SDS011;36190;54.980;73.388;2023-09-18T01:52:03;33.78;;;18.77;;
50291;SDS011;36190;54.980;73.388;2023-09-18T01:54:32;35.15;;;18.77;;
50291;SDS011;36190;54.980;73.388;2023-09-18T01:57:00;34.72;;;19.33;;
50291;SDS011;36190;54.980;73.388;2023-09-18T01:59:30;30.90;;;16.80;;
50291;SDS011;36190;54.980;73.388;2023-09-18T02:01:57;31.25;;;17.27;;
50291;SDS011;36190;54.980;73.388;2023-09-18T02:04:25;30.10;;;15.75;;
50291;SDS011;36190;54.980;73.388;2023-09-18T02:06:52;28.52;;;16.38;;
50291;SDS011;36190;54.980;73.388;2023-09-18T02:09:20;35.55;;;18.05;;
50291;SDS011;36190;54.980;73.388;2023-09-18T02:11:47;31.80;;;16.45;;
50291;SDS011;36190;54.980;73.388;2023-09-18T02:14:15;35.10;;;17.55;;
50291;SDS011;36190;54.980;73.388;2023-09-18T02:16:44;31.92;;;18.10;;
50291;SDS011;36190;54.980;73.388;2023-09-18T02:19:12;40.05;;;18.10;;
50291;SDS011;36190;54.980;73.388;2023-09-18T02:21:40;34.65;;;17.63;;
50291;SDS011;36190;54.980;73.388;2023-09-18T02:24:08;33.00;;;17.33;;
50291;SDS011;36190;54.980;73.388;2023-09-18T02:26:37;37.03;;;17.67;;
50291;SDS011;36190;54.980;73.388;2023-09-18T02:29:05;43.72;;;18.52;;
50291;SDS011;36190;54.980;73.388;2023-09-18T02:31:35;37.33;;;18.27;;
50291;SDS011;36190;54.980;73.388;2023-09-18T02:34:04;40.17;;;17.42;;
50291;SDS011;36190;54.980;73.388;2023-09-18T02:36:32;38.90;;;16.85;;
50291;SDS011;36190;54.980;73.388;2023-09-18T02:39:00;42.22;;;19.05;;
50291;SDS011;36190;54.980;73.388;2023-09-18T02:41:27;42.60;;;20.50;;
50291;SDS011;36190;54.980;73.388;2023-09-18T02:43:55;48.08;;;21.60;;
50291;SDS011;36190;54.980;73.388;2023-09-18T02:46:22;42.70;;;21.67;;
50291;SDS011;36190;54.980;73.388;2023-09-18T02:48:50;47.85;;;21.45;;
50291;SDS011;36190;54.980;73.388;2023-09-18T02:51:19;37.47;;;19.38;;
50291;SDS011;36190;54.980;73.388;2023-09-18T02:53:46;37.63;;;20.85;;
50291;SDS011;36190;54.980;73.388;2023-09-18T02:56:14;60.20;;;22.60;;
50291;SDS011;36190;54.980;73.388;2023-09-18T02:58:41;75.43;;;31.30;;
50291;SDS011;36190;54.980;73.388;2023-09-18T03:01:09;82.07;;;35.75;;
50291;SDS011;36190;54.980;73.388;2023-09-18T03:03:36;46.63;;;20.60;;
50291;SDS011;36190;54.980;73.388;2023-09-18T03:06:06;47.97;;;21.02;;
50291;SDS011;36190;54.980;73.388;2023-09-18T03:08:35;47.65;;;20.90;;
50291;SDS011;36190;54.980;73.388;2023-09-18T03:11:03;52.70;;;21.05;;
50291;SDS011;36190;54.980;73.388;2023-09-18T03:13:42;44.80;;;20.83;;
50291;SDS011;36190;54.980;73.388;2023-09-18T03:16:11;47.33;;;20.88;;
50291;SDS011;36190;54.980;73.388;2023-09-18T03:18:39;50.42;;;21.67;;
50291;SDS011;36190;54.980;73.388;2023-09-18T03:21:07;47.92;;;23.73;;
50291;SDS011;36190;54.980;73.388;2023-09-18T03:23:36;50.47;;;21.30;;
50291;SDS011;36190;54.980;73.388;2023-09-18T03:26:03;47.53;;;21.15;;
50291;SDS011;36190;54.980;73.388;2023-09-18T03:30:58;48.45;;;22.75;;
50291;SDS011;36190;54.980;73.388;2023-09-18T03:33:26;46.13;;;21.52;;
50291;SDS011;36190;54.980;73.388;2023-09-18T03:35:53;84.97;;;39.78;;
50291;SDS011;36190;54.980;73.388;2023-09-18T03:38:23;57.00;;;26.58;;
50291;SDS011;36190;54.980;73.388;2023-09-18T03:40:52;50.15;;;22.35;;
50291;SDS011;36190;54.980;73.388;2023-09-18T03:43:20;50.63;;;23.40;;
50291;SDS011;36190;54.980;73.388;2023-09-18T03:45:47;53.13;;;23.52;;
50291;SDS011;36190;54.980;73.388;2023-09-18T03:48:15;46.60;;;22.85;;
50291;SDS011;36190;54.980;73.388;2023-09-18T03:50:43;60.40;;;23.35;;
50291;SDS011;36190;54.980;73.388;2023-09-18T03:53:10;56.90;;;25.05;;
50291;SDS011;36190;54.980;73.388;2023-09-18T03:55:37;57.85;;;24.85;;
50291;SDS011;36190;54.980;73.388;2023-09-18T03:58:07;73.82;;;31.40;;
50291;SDS011;36190;54.980;73.388;2023-09-18T04:00:35;73.20;;;36.22;;
50291;SDS011;36190;54.980;73.388;2023-09-18T04:03:03;61.90;;;29.52;;
50291;SDS011;36190;54.980;73.388;2023-09-18T04:05:35;44.38;;;23.55;;
50291;SDS011;36190;54.980;73.388;2023-09-18T04:08:04;59.72;;;25.00;;
50291;SDS011;36190;54.980;73.388;2023-09-18T04:10:31;53.53;;;24.83;;
50291;SDS011;36190;54.980;73.388;2023-09-18T04:13:00;55.40;;;23.95;;
50291;SDS011;36190;54.980;73.388;2023-09-18T04:15:29;56.47;;;25.73;;
50291;SDS011;36190;54.980;73.388;2023-09-18T04:17:57;46.08;;;23.08;;
50291;SDS011;36190;54.980;73.388;2023-09-18T04:20:24;42.22;;;21.38;;
50291;SDS011;36190;54.980;73.388;2023-09-18T04:25:45;49.85;;;22.13;;
50291;SDS011;36190;54.980;73.388;2023-09-18T04:28:12;46.10;;;21.58;;
50291;SDS011;36190;54.980;73.388;2023-09-18T04:30:42;43.50;;;21.55;;
50291;SDS011;36190;54.980;73.388;2023-09-18T04:33:09;41.15;;;17.65;;
50291;SDS011;36190;54.980;73.388;2023-09-18T04:35:37;33.30;;;16.42;;
50291;SDS011;36190;54.980;73.388;2023-09-18T04:38:06;37.22;;;17.95;;
50291;SDS011;36190;54.980;73.388;2023-09-18T04:40:35;34.55;;;16.13;;
50291;SDS011;36190;54.980;73.388;2023-09-18T04:43:03;32.55;;;15.13;;
50291;SDS011;36190;54.980;73.388;2023-09-18T04:45:31;40.58;;;15.20;;
50291;SDS011;36190;54.980;73.388;2023-09-18T04:48:00;42.92;;;16.15;;
50291;SDS011;36190;54.980;73.388;2023-09-18T04:50:28;48.45;;;16.55;;
50291;SDS011;36190;54.980;73.388;2023-09-18T04:52:56;33.65;;;15.32;;
50291;SDS011;36190;54.980;73.388;2023-09-18T04:55:23;32.90;;;13.60;;
50291;SDS011;36190;54.980;73.388;2023-09-18T04:57:51;42.10;;;16.30;;
50291;SDS011;36190;54.980;73.388;2023-09-18T05:00:18;50.97;;;15.43;;
50291;SDS011;36190;54.980;73.388;2023-09-18T05:02:48;42.17;;;14.88;;
50291;SDS011;36190;54.980;73.388;2023-09-18T05:05:17;36.97;;;15.80;;
50291;SDS011;36190;54.980;73.388;2023-09-18T05:07:45;33.53;;;14.73;;
50291;SDS011;36190;54.980;73.388;2023-09-18T05:10:13;47.70;;;15.85;;
50291;SDS011;36190;54.980;73.388;2023-09-18T05:12:40;42.45;;;14.60;;
50291;SDS011;36190;54.980;73.388;2023-09-18T05:15:08;42.38;;;13.93;;
50291;SDS011;36190;54.980;73.388;2023-09-18T05:17:42;40.28;;;13.65;;
50291;SDS011;36190;54.980;73.388;2023-09-18T05:20:12;52.13;;;15.63;;
50291;SDS011;36190;54.980;73.388;2023-09-18T05:22:43;44.42;;;13.73;;
50291;SDS011;36190;54.980;73.388;2023-09-18T05:25:11;37.78;;;12.55;;
50291;SDS011;36190;54.980;73.388;2023-09-18T05:27:39;40.25;;;12.48;;
50291;SDS011;36190;54.980;73.388;2023-09-18T05:30:11;43.40;;;13.85;;
50291;SDS011;36190;54.980;73.388;2023-09-18T05:32:41;42.10;;;15.13;;
50291;SDS011;36190;54.980;73.388;2023-09-18T05:35:08;43.17;;;13.43;;
50291;SDS011;36190;54.980;73.388;2023-09-18T05:37:38;46.63;;;15.85;;
50291;SDS011;36190;54.980;73.388;2023-09-18T05:40:09;43.47;;;16.73;;
50291;SDS011;36190;54.980;73.388;2023-09-18T05:42:37;41.42;;;14.65;;
50291;SDS011;36190;54.980;73.388;2023-09-18T05:45:08;36.17;;;12.25;;
50291;SDS011;36190;54.980;73.388;2023-09-18T05:47:36;43.10;;;12.45;;
50291;SDS011;36190;54.980;73.388;2023-09-18T05:50:04;54.85;;;13.82;;
50291;SDS011;36190;54.980;73.388;2023-09-18T05:52:33;43.35;;;13.40;;
50291;SDS011;36190;54.980;73.388;2023-09-18T05:55:01;41.42;;;15.80;;
50291;SDS011;36190;54.980;73.388;2023-09-18T05:57:31;39.60;;;14.35;;
50291;SDS011;36190;54.980;73.388;2023-09-18T05:59:58;44.88;;;13.90;;
50291;SDS011;36190;54.980;73.388;2023-09-18T06:02:26;42.95;;;13.88;;
50291;SDS011;36190;54.980;73.388;2023-09-18T06:04:54;48.42;;;15.05;;
50291;SDS011;36190;54.980;73.388;2023-09-18T06:07:23;42.90;;;15.75;;
50291;SDS011;36190;54.980;73.388;2023-09-18T06:09:51;60.05;;;15.02;;
50291;SDS011;36190;54.980;73.388;2023-09-18T06:12:19;36.65;;;13.50;;
50291;SDS011;36190;54.980;73.388;2023-09-18T06:14:49;47.88;;;17.92;;
50291;SDS011;36190;54.980;73.388;2023-09-18T06:17:16;37.92;;;14.30;;
50291;SDS011;36190;54.980;73.388;2023-09-18T06:19:44;35.17;;;14.15;;
50291;SDS011;36190;54.980;73.388;2023-09-18T06:22:12;36.05;;;11.95;;
50291;SDS011;36190;54.980;73.388;2023-09-18T06:24:40;29.00;;;12.45;;
50291;SDS011;36190;54.980;73.388;2023-09-18T06:27:08;33.20;;;12.68;;
50291;SDS011;36190;54.980;73.388;2023-09-18T06:29:36;35.88;;;14.15;;
50291;SDS011;36190;54.980;73.388;2023-09-18T06:32:06;37.10;;;13.73;;
50291;SDS011;36190;54.980;73.388;2023-09-18T06:34:33;35.10;;;14.98;;
50291;SDS011;36190;54.980;73.388;2023-09-18T06:37:01;33.67;;;13.35;;
50291;SDS011;36190;54.980;73.388;2023-09-18T06:39:29;43.90;;;13.50;;
50291;SDS011;36190;54.980;73.388;2023-09-18T06:41:57;35.83;;;12.80;;
50291;SDS011;36190;54.980;73.388;2023-09-18T06:44:24;30.98;;;11.65;;
50291;SDS011;36190;54.980;73.388;2023-09-18T06:46:52;30.90;;;13.35;;
50291;SDS011;36190;54.980;73.388;2023-09-18T06:49:21;28.15;;;11.77;;
50291;SDS011;36190;54.980;73.388;2023-09-18T06:51:48;39.80;;;13.68;;
50291;SDS011;36190;54.980;73.388;2023-09-18T06:54:16;38.15;;;11.88;;
50291;SDS011;36190;54.980;73.388;2023-09-18T06:56:43;31.02;;;10.85;;
50291;SDS011;36190;54.980;73.388;2023-09-18T06:59:11;31.42;;;11.18;;
50291;SDS011;36190;54.980;73.388;2023-09-18T07:01:39;24.60;;;10.35;;
50291;SDS011;36190;54.980;73.388;2023-09-18T07:04:07;27.88;;;10.93;;
50291;SDS011;36190;54.980;73.388;2023-09-18T07:06:36;25.50;;;10.70;;
50291;SDS011;36190;54.980;73.388;2023-09-18T07:09:04;25.60;;;10.52;;
50291;SDS011;36190;54.980;73.388;2023-09-18T07:11:32;26.27;;;10.02;;
50291;SDS011;36190;54.980;73.388;2023-09-18T07:14:00;25.98;;;11.30;;
50291;SDS011;36190;54.980;73.388;2023-09-18T07:16:27;23.42;;;9.98;;
50291;SDS011;36190;54.980;73.388;2023-09-18T07:18:55;25.13;;;8.93;;
50291;SDS011;36190;54.980;73.388;2023-09-18T07:21:23;18.60;;;8.88;;
50291;SDS011;36190;54.980;73.388;2023-09-18T07:23:52;23.50;;;8.95;;
50291;SDS011;36190;54.980;73.388;2023-09-18T07:26:19;30.45;;;10.48;;
50291;SDS011;36190;54.980;73.388;2023-09-18T07:28:47;25.58;;;8.95;;
50291;SDS011;36190;54.980;73.388;2023-09-18T07:31:14;23.65;;;9.80;;
50291;SDS011;36190;54.980;73.388;2023-09-18T07:33:42;26.23;;;9.35;;
50291;SDS011;36190;54.980;73.388;2023-09-18T07:36:09;23.88;;;9.77;;
50291;SDS011;36190;54.980;73.388;2023-09-18T07:38:37;23.75;;;9.10;;
50291;SDS011;36190;54.980;73.388;2023-09-18T07:41:07;18.67;;;7.97;;
50291;SDS011;36190;54.980;73.388;2023-09-18T07:43:34;22.80;;;8.90;;
50291;SDS011;36190;54.980;73.388;2023-09-18T07:46:02;16.83;;;7.40;;
50291;SDS011;36190;54.980;73.388;2023-09-18T07:48:29;14.80;;;8.38;;
50291;SDS011;36190;54.980;73.388;2023-09-18T07:50:57;20.25;;;7.88;;
50291;SDS011;36190;54.980;73.388;2023-09-18T07:53:24;19.58;;;7.18;;
50291;SDS011;36190;54.980;73.388;2023-09-18T07:55:55;15.25;;;6.20;;
50291;SDS011;36190;54.980;73.388;2023-09-18T07:58:26;14.05;;;5.25;;
50291;SDS011;36190;54.980;73.388;2023-09-18T08:00:54;15.05;;;5.00;;
50291;SDS011;36190;54.980;73.388;2023-09-18T08:03:22;10.98;;;4.40;;
50291;SDS011;36190;54.980;73.388;2023-09-18T08:05:50;12.70;;;5.30;;
50291;SDS011;36190;54.980;73.388;2023-09-18T08:08:19;19.92;;;6.32;;
50291;SDS011;36190;54.980;73.388;2023-09-18T08:10:49;16.27;;;6.25;;
50291;SDS011;36190;54.980;73.388;2023-09-18T08:13:17;20.73;;;8.00;;
50291;SDS011;36190;54.980;73.388;2023-09-18T08:15:46;20.98;;;7.80;;
50291;SDS011;36190;54.980;73.388;2023-09-18T08:18:14;21.13;;;7.38;;
50291;SDS011;36190;54.980;73.388;2023-09-18T08:20:41;19.48;;;7.80;;
50291;SDS011;36190;54.980;73.388;2023-09-18T08:23:12;24.35;;;8.45;;
50291;SDS011;36190;54.980;73.388;2023-09-18T08:25:39;17.77;;;6.85;;
50291;SDS011;36190;54.980;73.388;2023-09-18T08:28:07;16.73;;;6.32;;
50291;SDS011;36190;54.980;73.388;2023-09-18T08:30:34;19.65;;;7.63;;
50291;SDS011;36190;54.980;73.388;2023-09-18T08:33:06;15.82;;;6.35;;
50291;SDS011;36190;54.980;73.388;2023-09-18T08:35:34;16.15;;;6.70;;
50291;SDS011;36190;54.980;73.388;2023-09-18T08:38:01;16.50;;;7.32;;
50291;SDS011;36190;54.980;73.388;2023-09-18T08:40:29;15.88;;;6.95;;
50291;SDS011;36190;54.980;73.388;2023-09-18T08:42:57;17.65;;;6.35;;
50291;SDS011;36190;54.980;73.388;2023-09-18T08:45:36;20.25;;;7.10;;
50291;SDS011;36190;54.980;73.388;2023-09-18T08:48:09;22.02;;;7.90;;
50291;SDS011;36190;54.980;73.388;2023-09-18T08:50:36;23.92;;;7.55;;
50291;SDS011;36190;54.980;73.388;2023-09-18T08:53:05;19.48;;;8.02;;
50291;SDS011;36190;54.980;73.388;2023-09-18T08:55:33;16.83;;;7.75;;
50291;SDS011;36190;54.980;73.388;2023-09-18T08:58:01;20.58;;;7.75;;
50291;SDS011;36190;54.980;73.388;2023-09-18T09:00:28;22.20;;;8.18;;
50291;SDS011;36190;54.980;73.388;2023-09-18T09:02:56;18.20;;;8.82;;
50291;SDS011;36190;54.980;73.388;2023-09-18T09:05:26;25.35;;;9.07;;
50291;SDS011;36190;54.980;73.388;2023-09-18T09:07:53;18.88;;;9.43;;
50291;SDS011;36190;54.980;73.388;2023-09-18T09:10:21;25.33;;;9.95;;
50291;SDS011;36190;54.980;73.388;2023-09-18T09:12:54;25.25;;;9.38;;
50291;SDS011;36190;54.980;73.388;2023-09-18T09:15:23;24.23;;;9.43;;
50291;SDS011;36190;54.980;73.388;2023-09-18T09:17:52;20.15;;;8.38;;
50291;SDS011;36190;54.980;73.388;2023-09-18T09:20:31;27.38;;;8.60;;
50291;SDS011;36190;54.980;73.388;2023-09-18T09:23:02;18.10;;;7.55;;
50291;SDS011;36190;54.980;73.388;2023-09-18T09:25:32;23.80;;;8.83;;
50291;SDS011;36190;54.980;73.388;2023-09-18T09:28:00;20.98;;;8.05;;
50291;SDS011;36190;54.980;73.388;2023-09-18T09:30:30;22.17;;;8.05;;
50291;SDS011;36190;54.980;73.388;2023-09-18T09:32:58;17.55;;;6.22;;
50291;SDS011;36190;54.980;73.388;2023-09-18T09:35:28;17.23;;;6.80;;
50291;SDS011;36190;54.980;73.388;2023-09-18T09:37:58;13.70;;;5.65;;
50291;SDS011;36190;54.980;73.388;2023-09-18T09:40:30;16.50;;;6.03;;
50291;SDS011;36190;54.980;73.388;2023-09-18T09:42:57;15.55;;;6.47;;
50291;SDS011;36190;54.980;73.388;2023-09-18T09:45:29;22.85;;;7.13;;
50291;SDS011;36190;54.980;73.388;2023-09-18T09:48:00;19.65;;;6.78;;
50291;SDS011;36190;54.980;73.388;2023-09-18T09:50:31;21.02;;;5.93;;
50291;SDS011;36190;54.980;73.388;2023-09-18T09:53:00;18.23;;;5.90;;
50291;SDS011;36190;54.980;73.388;2023-09-18T09:55:28;15.18;;;5.53;;
50291;SDS011;36190;54.980;73.388;2023-09-18T09:57:57;17.73;;;5.65;;
50291;SDS011;36190;54.980;73.388;2023-09-18T10:00:28;18.58;;;5.55;;
50291;SDS011;36190;54.980;73.388;2023-09-18T10:03:03;14.63;;;5.18;;
50291;SDS011;36190;54.980;73.388;2023-09-18T10:05:32;15.98;;;5.60;;
50291;SDS011;36190;54.980;73.388;2023-09-18T10:08:04;14.73;;;5.20;;
50291;SDS011;36190;54.980;73.388;2023-09-18T10:10:35;20.65;;;5.75;;
50291;SDS011;36190;54.980;73.388;2023-09-18T10:13:07;12.13;;;4.72;;
50291;SDS011;36190;54.980;73.388;2023-09-18T10:15:42;12.07;;;4.20;;
50291;SDS011;36190;54.980;73.388;2023-09-18T10:18:17;13.05;;;4.53;;
50291;SDS011;36190;54.980;73.388;2023-09-18T10:20:50;15.32;;;4.60;;
50291;SDS011;36190;54.980;73.388;2023-09-18T10:23:27;10.90;;;4.50;;
50291;SDS011;36190;54.980;73.388;2023-09-18T10:26:06;12.18;;;4.82;;
50291;SDS011;36190;54.980;73.388;2023-09-18T10:28:36;14.55;;;4.90;;
50291;SDS011;36190;54.980;73.388;2023-09-18T10:31:04;16.20;;;4.88;;
50291;SDS011;36190;54.980;73.388;2023-09-18T10:33:34;12.48;;;4.32;;
50291;SDS011;36190;54.980;73.388;2023-09-18T10:36:04;16.35;;;5.03;;
50291;SDS011;36190;54.980;73.388;2023-09-18T10:38:35;15.80;;;5.30;;
50291;SDS011;36190;54.980;73.388;2023-09-18T10:41:04;17.65;;;5.78;;
50291;SDS011;36190;54.980;73.388;2023-09-18T10:43:35;20.20;;;5.97;;
50291;SDS011;36190;54.980;73.388;2023-09-18T10:46:03;12.07;;;4.93;;
50291;SDS011;36190;54.980;73.388;2023-09-18T10:48:31;14.98;;;4.80;;
50291;SDS011;36190;54.980;73.388;2023-09-18T10:50:59;16.10;;;5.18;;
50291;SDS011;36190;54.980;73.388;2023-09-18T10:53:31;13.60;;;6.25;;
50291;SDS011;36190;54.980;73.388;2023-09-18T10:56:00;16.33;;;5.65;;
50291;SDS011;36190;54.980;73.388;2023-09-18T10:58:29;25.80;;;6.68;;
50291;SDS011;36190;54.980;73.388;2023-09-18T11:01:01;25.27;;;7.13;;
50291;SDS011;36190;54.980;73.388;2023-09-18T11:03:29;15.48;;;5.65;;
50291;SDS011;36190;54.980;73.388;2023-09-18T11:06:02;12.93;;;4.90;;
50291;SDS011;36190;54.980;73.388;2023-09-18T11:08:32;14.73;;;4.77;;
50291;SDS011;36190;54.980;73.388;2023-09-18T11:11:03;11.32;;;4.70;;
50291;SDS011;36190;54.980;73.388;2023-09-18T11:13:39;8.60;;;4.30;;
50291;SDS011;36190;54.980;73.388;2023-09-18T11:16:15;8.07;;;3.53;;
50291;SDS011;36190;54.980;73.388;2023-09-18T11:18:45;8.18;;;3.80;;
50291;SDS011;36190;54.980;73.388;2023-09-18T11:21:17;9.85;;;3.80;;
50291;SDS011;36190;54.980;73.388;2023-09-18T11:23:57;17.42;;;5.07;;
50291;SDS011;36190;54.980;73.388;2023-09-18T11:26:29;8.82;;;3.72;;
50291;SDS011;36190;54.980;73.388;2023-09-18T11:28:59;10.30;;;3.80;;
50291;SDS011;36190;54.980;73.388;2023-09-18T11:31:43;9.25;;;3.90;;
50291;SDS011;36190;54.980;73.388;2023-09-18T11:34:15;10.73;;;4.15;;
50291;SDS011;36190;54.980;73.388;2023-09-18T11:36:47;8.30;;;3.93;;
50291;SDS011;36190;54.980;73.388;2023-09-18T11:42:12;10.95;;;5.45;;
50291;SDS011;36190;54.980;73.388;2023-09-18T11:44:41;10.88;;;4.22;;
50291;SDS011;36190;54.980;73.388;2023-09-18T11:47:12;12.23;;;4.63;;
50291;SDS011;36190;54.980;73.388;2023-09-18T11:49:49;14.45;;;5.35;;
50291;SDS011;36190;54.980;73.388;2023-09-18T11:52:20;10.02;;;4.72;;
50291;SDS011;36190;54.980;73.388;2023-09-18T11:54:48;12.27;;;4.80;;
50291;SDS011;36190;54.980;73.388;2023-09-18T11:57:18;12.15;;;4.80;;
50291;SDS011;36190;54.980;73.388;2023-09-18T11:59:46;13.60;;;5.68;;
50291;SDS011;36190;54.980;73.388;2023-09-18T12:02:24;16.10;;;5.63;;
50291;SDS011;36190;54.980;73.388;2023-09-18T12:04:53;15.68;;;5.97;;
50291;SDS011;36190;54.980;73.388;2023-09-18T12:07:20;19.98;;;6.22;;
50291;SDS011;36190;54.980;73.388;2023-09-18T12:09:48;16.52;;;6.53;;
50291;SDS011;36190;54.980;73.388;2023-09-18T12:12:17;16.75;;;6.20;;
50291;SDS011;36190;54.980;73.388;2023-09-18T12:14:45;18.38;;;6.43;;
50291;SDS011;36190;54.980;73.388;2023-09-18T12:17:16;19.38;;;7.70;;
50291;SDS011;36190;54.980;73.388;2023-09-18T12:19:52;16.83;;;7.55;;
50291;SDS011;36190;54.980;73.388;2023-09-18T12:22:24;20.27;;;8.45;;
50291;SDS011;36190;54.980;73.388;2023-09-18T12:24:53;16.58;;;7.45;;
50291;SDS011;36190;54.980;73.388;2023-09-18T12:27:36;22.20;;;7.80;;
50291;SDS011;36190;54.980;73.388;2023-09-18T12:30:05;19.42;;;7.97;;
50291;SDS011;36190;54.980;73.388;2023-09-18T12:32:35;19.08;;;7.85;;
50291;SDS011;36190;54.980;73.388;2023-09-18T12:35:04;17.25;;;7.07;;
50291;SDS011;36190;54.980;73.388;2023-09-18T12:37:33;19.90;;;8.10;;
50291;SDS011;36190;54.980;73.388;2023-09-18T12:40:01;18.67;;;8.40;;
50291;SDS011;36190;54.980;73.388;2023-09-18T12:42:37;23.50;;;10.60;;
50291;SDS011;36190;54.980;73.388;2023-09-18T12:45:07;27.35;;;12.07;;
50291;SDS011;36190;54.980;73.388;2023-09-18T12:47:37;21.90;;;11.20;;
50291;SDS011;36190;54.980;73.388;2023-09-18T12:50:05;25.83;;;11.48;;
50291;SDS011;36190;54.980;73.388;2023-09-18T12:52:36;22.33;;;11.65;;
50291;SDS011;36190;54.980;73.388;2023-09-18T12:55:03;23.85;;;11.68;;
50291;SDS011;36190;54.980;73.388;2023-09-18T12:57:32;25.75;;;13.25;;
50291;SDS011;36190;54.980;73.388;2023-09-18T13:00:09;26.13;;;15.57;;
50291;SDS011;36190;54.980;73.388;2023-09-18T13:02:38;32.97;;;16.08;;
50291;SDS011;36190;54.980;73.388;2023-09-18T13:05:06;27.00;;;14.07;;
50291;SDS011;36190;54.980;73.388;2023-09-18T13:07:42;25.73;;;14.23;;
50291;SDS011;36190;54.980;73.388;2023-09-18T13:10:11;28.80;;;14.25;;
50291;SDS011;36190;54.980;73.388;2023-09-18T13:12:40;29.23;;;13.45;;
50291;SDS011;36190;54.980;73.388;2023-09-18T13:15:11;30.65;;;13.68;;
50291;SDS011;36190;54.980;73.388;2023-09-18T13:17:39;31.92;;;13.02;;
50291;SDS011;36190;54.980;73.388;2023-09-18T13:20:10;22.90;;;12.13;;
50291;SDS011;36190;54.980;73.388;2023-09-18T13:22:40;27.08;;;12.27;;
50291;SDS011;36190;54.980;73.388;2023-09-18T13:25:08;30.38;;;12.10;;
50291;SDS011;36190;54.980;73.388;2023-09-18T13:27:37;30.02;;;12.52;;
50291;SDS011;36190;54.980;73.388;2023-09-18T13:30:06;27.48;;;13.25;;
50291;SDS011;36190;54.980;73.388;2023-09-18T13:32:37;29.77;;;13.40;;
50291;SDS011;36190;54.980;73.388;2023-09-18T13:35:04;32.00;;;13.75;;
50291;SDS011;36190;54.980;73.388;2023-09-18T13:37:33;34.60;;;14.85;;
50291;SDS011;36190;54.980;73.388;2023-09-18T13:40:01;31.60;;;13.80;;
50291;SDS011;36190;54.980;73.388;2023-09-18T13:42:32;48.00;;;17.33;;
50291;SDS011;36190;54.980;73.388;2023-09-18T13:45:00;30.27;;;16.48;;
50291;SDS011;36190;54.980;73.388;2023-09-18T13:47:29;42.38;;;20.80;;
50291;SDS011;36190;54.980;73.388;2023-09-18T13:49:59;52.35;;;25.35;;
50291;SDS011;36190;54.980;73.388;2023-09-18T13:52:27;48.70;;;25.77;;
50291;SDS011;36190;54.980;73.388;2023-09-18T13:54:54;48.53;;;25.05;;
50291;SDS011;36190;54.980;73.388;2023-09-18T13:57:22;55.97;;;25.45;;
50291;SDS011;36190;54.980;73.388;2023-09-18T13:59:50;55.75;;;24.65;;
50291;SDS011;36190;54.980;73.388;2023-09-18T14:02:18;55.13;;;27.42;;
50291;SDS011;36190;54.980;73.388;2023-09-18T14:04:46;47.70;;;21.73;;
50291;SDS011;36190;54.980;73.388;2023-09-18T14:07:16;53.30;;;23.25;;
50291;SDS011;36190;54.980;73.388;2023-09-18T14:09:43;56.92;;;24.45;;
50291;SDS011;36190;54.980;73.388;2023-09-18T14:12:11;59.97;;;24.58;;
50291;SDS011;36190;54.980;73.388;2023-09-18T14:14:39;62.35;;;24.42;;
50291;SDS011;36190;54.980;73.388;2023-09-18T14:17:07;57.58;;;23.20;;
50291;SDS011;36190;54.980;73.388;2023-09-18T14:19:35;51.60;;;22.65;;
50291;SDS011;36190;54.980;73.388;2023-09-18T14:22:04;54.78;;;22.33;;
50291;SDS011;36190;54.980;73.388;2023-09-18T14:24:33;43.90;;;21.17;;
50291;SDS011;36190;54.980;73.388;2023-09-18T14:27:01;55.10;;;22.15;;
50291;SDS011;36190;54.980;73.388;2023-09-18T14:29:29;64.72;;;31.65;;
50291;SDS011;36190;54.980;73.388;2023-09-18T14:31:57;83.10;;;38.63;;